EPSC/SZZ METAR and TAF weather

Enter ICAO airport designator
Station Type Date Time Source
EPSC METAR 2019/06/24 23:30 UTC NOAA

EPSC 242330Z 09008KT CAVOK 18/12 Q1025


Station Type Date Time Source
EPSC Decoded METAR 2019/06/24 23:30 UTC NOAA

Szczecin, Poland (EPSC) 53-24N 014-37E 3M
Jun 24, 2019 - 07:30 PM EDT / 2019.06.24 2330 UTC
Wind: from the E (090 degrees) at 9 MPH (8 KT):0
Visibility: greater than 7 mile(s):0
Temperature: 64 F (18 C)
Dew Point: 53 F (12 C)
Relative Humidity: 67%
Pressure (altimeter): 30.27 in. Hg (1025 hPa)
ob: EPSC 242330Z 09008KT CAVOK 18/12 Q1025
cycle: 23

Station Type Date Time Source
EPSC TAF 2019/06/24 18:33 UTC NOAA

TAF EPSC 241730Z 2418/2518 03007KT CAVOK
BECMG 2418/2420 09010KT
BECMG 2506/2508 15014KT

Example: see airport list